Latest Weather Observations for Cape Leeuwin

IDW60801

Issued at 6:35 am WST Tuesday 21 October 2014 (issued every 30 minutes, with the page automatically refreshed every 10 minutes)

About weather observations | Map of weather stations | Latest weather observations for WA | Other Formats
Station Details ID: 009518 Name: CAPE LEEUWIN Lat: -34.37 Lon: 115.14 Height: 13.0 m
Data from the previous 72 hours. | See also: Recent months at Cape Leeuwin
Date/Time
WST
Temp
°C
App
Temp
°C
Dew
Point
Rel
Hum
%
Delta-T
°C
Wind Press
QNH
hPa
Press
MSL
hPa
Rain
since 9 am
mm
Dir
 
Spd
km/h
Gust
km/h
Spd
kts
Gust
kts
21/06:30am 13.4 10.9 8.1 70 2.6 NNE 11 13 6 7 1021.9 1021.9 0.2
21/06:00am 12.8 10.9 7.4 69 2.6 ENE 7 9 4 5 1021.8 1021.8 0.2
21/05:30am 12.9 11.4 6.8 66 2.9 ENE 4 7 2 4 1021.7 1021.7 0.2
21/05:00am 13.5 12.5 7.3 66 3.0 SSW 2 9 1 5 1021.4 1021.4 0.2
21/04:30am 13.3 11.3 7.1 66 3.0 SSW 7 9 4 5 1021.1 1021.1 0.2
21/04:00am 13.3 10.8 6.6 64 3.2 SSW 9 13 5 7 1020.9 1020.9 0.2
21/03:30am 13.1 10.5 6.1 62 3.3 SSW 9 11 5 6 1020.7 1020.7 0.2
21/03:00am 13.2 10.7 6.5 64 3.2 S 9 11 5 6 1020.7 1020.7 0.2
21/02:30am 13.5 10.6 6.6 63 3.3 SSW 11 13 6 7 1020.5 1020.5 0.2
21/02:00am 13.7 10.4 6.6 62 3.4 SW 13 15 7 8 1020.4 1020.4 0.2
21/01:30am 13.4 10.9 6.7 64 3.2 SSW 9 13 5 7 1020.5 1020.5 0.2
21/01:00am 13.5 11.1 7.1 65 3.1 SSW 9 15 5 8 1020.4 1020.4 0.2
21/12:30am 13.6 11.2 7.0 64 3.2 S 9 11 5 6 1020.4 1020.4 0.2
21/12:00am 13.4 11.0 7.2 66 3.0 S 9 13 5 7 1020.4 1020.4 0.2
 
Date/Time
WST
Temp
°C
App
Temp
°C
Dew
Point
Rel
Hum
%
Delta-T
°C
Wind Press
QNH
hPa
Press
MSL
hPa
Rain
since 9 am
mm
Dir
 
Spd
km/h
Gust
km/h
Spd
kts
Gust
kts
20/11:30pm 13.4 10.7 7.5 67 2.9 S 11 17 6 9 1020.5 1020.5 0.2
20/11:00pm 13.5 11.1 7.1 65 3.1 S 9 13 5 7 1020.5 1020.5 0.2
20/10:30pm 13.9 10.8 7.1 63 3.3 S 13 19 7 10 1020.7 1020.7 0.2
20/10:00pm 14.1 10.5 6.9 62 3.5 S 15 20 8 11 1020.8 1020.8 0.2
20/09:30pm 14.7 11.3 7.6 62 3.5 S 15 20 8 11 1020.8 1020.8 0.2
20/09:00pm 14.4 10.9 7.0 61 3.6 SSW 15 20 8 11 1020.8 1020.8 0.2
20/08:30pm 14.5 10.9 6.6 59 3.8 SW 15 22 8 12 1020.9 1020.9 0.2
20/08:00pm 15.2 10.0 7.3 59 3.9 SW 24 32 13 17 1021.1 1021.1 0.2
20/07:30pm 14.6 10.2 7.2 61 3.6 SW 20 26 11 14 1020.4 1020.4 0.2
20/07:00pm 14.5 10.1 7.4 62 3.5 SSW 20 24 11 13 1020.3 1020.3 0.2
20/06:30pm 15.1 10.0 7.6 61 3.7 SW 24 30 13 16 1020.3 1020.3 0.2
20/06:00pm 15.3 10.5 7.4 59 3.9 SW 22 32 12 17 1019.9 1019.9 0.2
20/05:30pm 16.0 11.5 8.7 62 3.7 SW 22 28 12 15 1019.6 1019.6 0.2
20/05:00pm 16.2 11.1 9.2 63 3.6 SW 26 30 14 16 1019.5 1019.5 0.2
20/04:30pm 17.6 12.4 10.2 62 3.9 SW 28 37 15 20 1019.3 1019.3 0.2
20/04:00pm 17.3 12.1 10.3 63 3.7 SW 28 33 15 18 1019.1 1019.1 0.2
20/03:30pm 17.0 11.9 10.6 66 3.4 SW 28 33 15 18 1019.1 1019.1 0.2
20/03:00pm 17.4 11.7 11.3 67 3.3 SW 32 37 17 20 1018.9 1018.9 0.2
20/02:30pm 17.0 12.8 12.3 74 2.6 SW 26 32 14 17 1018.8 1018.8 0.2
20/02:00pm 16.7 11.3 12.3 75 2.4 SW 32 39 17 21 1018.5 1018.5 0.2
20/01:30pm 18.5 14.3 12.4 67 3.4 SW 26 32 14 17 1018.4 1018.4 0.2
20/01:00pm 17.5 12.9 12.4 72 2.8 SW 28 33 15 18 1018.4 1018.4 0.2
20/12:30pm 16.2 11.8 13.0 81 1.8 SSW 28 32 15 17 1018.3 1018.3 0.2
20/12:00pm 16.1 12.5 13.2 83 1.6 SSW 24 30 13 16 1018.3 1018.3 0.2
20/11:30am 15.9 13.3 13.2 84 1.5 WSW 19 26 10 14 1018.2 1018.2 0.2
20/11:00am 16.6 12.2 13.0 79 2.0 SW 28 33 15 18 1018.2 1018.2 0.2
20/10:30am 18.2 14.9 12.8 71 3.0 SSW 22 30 12 16 1018.1 1018.1 0.0
20/10:00am 18.0 14.9 12.2 69 3.2 S 20 26 11 14 1017.9 1017.9 0.0
20/09:30am 16.9 12.5 12.9 77 2.2 SSW 28 35 15 19 1018.1 1018.1 0.0
20/09:00am 17.0 13.1 12.1 73 2.7 S 24 32 13 17 1017.9 1017.9 2.6
20/08:30am 15.7 11.3 11.8 77 2.1 S 26 32 14 17 1017.9 1017.9 2.6
20/08:00am 15.5 11.0 11.4 76 2.2 S 26 35 14 19 1017.9 1017.9 2.6
20/07:30am 15.4 10.1 11.3 76 2.2 S 30 41 16 22 1017.8 1017.8 2.6
20/07:00am 15.1 9.5 11.6 79 1.9 S 32 41 17 22 1017.4 1017.4 2.6
20/06:30am 14.7 9.5 11.7 82 1.6 S 30 39 16 21 1017.2 1017.2 2.6
20/06:00am 14.2 8.6 11.6 84 1.4 S 32 43 17 23 1017.0 1017.0 2.6
20/05:30am 14.3 8.6 11.7 84 1.4 S 33 43 18 23 1016.5 1016.5 2.6
20/05:00am 14.3 8.1 11.3 82 1.6 S 35 43 19 23 1016.3 1016.3 2.6
20/04:30am 14.1 8.3 11.5 84 1.4 S 33 43 18 23 1016.1 1016.1 2.6
20/04:00am 13.9 8.2 11.8 87 1.1 S 33 43 18 23 1016.1 1016.1 2.6
20/03:30am 13.9 7.9 12.2 89 0.9 S 35 46 19 25 1016.2 1016.2 2.6
20/03:00am 13.7 7.9 12.6 93 0.6 S 35 43 19 23 1016.7 1016.7 2.0
20/02:53am 13.2 6.9 12.3 94 0.5 S 37 44 20 24 1016.7 1016.7 1.8
20/02:39am 13.8 6.9 12.7 93 0.6 SSE 41 46 22 25 1016.6 1016.6 1.2
20/02:30am 14.2 8.9 12.4 89 1.0 S 32 41 17 22 1016.6 1016.6 1.2
20/02:00am 14.0 8.3 11.8 86 1.2 S 33 44 18 24 1016.6 1016.6 0.8
20/01:30am 14.2 8.7 12.0 87 1.2 S 32 43 17 23 1016.6 1016.6 0.8
20/01:00am 14.1 8.0 11.9 86 1.2 SSE 35 46 19 25 1017.0 1017.0 0.4
20/12:30am 14.1 9.3 11.7 85 1.3 S 28 33 15 18 1017.4 1017.4 0.4
20/12:00am 14.7 8.2 10.5 76 2.2 SSE 35 46 19 25 1017.8 1017.8 0.0
 
Date/Time
WST
Temp
°C
App
Temp
°C
Dew
Point
Rel
Hum
%
Delta-T
°C
Wind Press
QNH
hPa
Press
MSL
hPa
Rain
since 9 am
mm
Dir
 
Spd
km/h
Gust
km/h
Spd
kts
Gust
kts
19/11:30pm 15.3 8.9 9.5 68 3.0 SSE 33 41 18 22 1017.8 1017.8 0.0
19/11:09pm 14.6 8.9 11.0 79 1.9 SSE 32 50 17 27 1018.0 1018.0 0.0
19/11:00pm 14.6 7.1 10.8 78 2.0 SE 41 50 22 27 1018.0 1018.0 0.0
19/10:30pm 15.3 9.5 10.8 74 2.4 SSE 32 39 17 21 1018.1 1018.1 0.0
19/10:00pm 14.7 7.5 10.5 76 2.2 SSE 39 48 21 26 1018.3 1018.3 0.0
19/09:30pm 15.0 8.0 11.2 78 2.0 SE 39 54 21 29 1018.4 1018.4 0.0
19/09:00pm 14.7 8.0 11.1 79 1.9 SSE 37 46 20 25 1018.7 1018.7 0.0
19/08:30pm 15.3 8.7 10.1 71 2.7 SE 35 46 19 25 1018.5 1018.5 0.0
19/08:00pm 15.1 8.2 10.3 73 2.5 SE 37 46 20 25 1018.4 1018.4 0.0
19/07:30pm 14.9 7.8 10.9 77 2.1 SE 39 48 21 26 1018.2 1018.2 0.0
19/07:00pm 15.0 8.4 11.2 78 2.0 SE 37 48 20 26 1018.1 1018.1 0.0
19/06:30pm 14.7 7.8 11.5 81 1.7 SE 39 48 21 26 1018.2 1018.2 0.0
19/06:00pm 15.1 8.0 10.9 76 2.2 SE 39 54 21 29 1018.4 1018.4 0.0
19/05:30pm 15.2 7.2 10.6 74 2.4 ESE 43 56 23 30 1018.2 1018.2 0.0
19/05:00pm 15.5 7.4 10.6 72 2.6 ESE 44 56 24 30 1018.2 1018.2 0.0
19/04:30pm 15.3 7.9 11.2 76 2.2 SE 41 52 22 28 1018.4 1018.4 0.0
19/04:00pm 15.9 8.7 10.4 70 2.9 ESE 39 48 21 26 1018.2 1018.2 0.0
19/03:30pm 16.3 9.0 10.2 67 3.2 ESE 39 48 21 26 1018.0 1018.0 0.0
19/03:00pm 16.7 9.4 10.3 66 3.4 SE 39 48 21 26 1018.0 1018.0 0.0
19/02:30pm 16.5 8.7 9.8 64 3.5 ESE 41 48 22 26 1018.0 1018.0 0.0
19/02:00pm 16.9 9.6 10.1 64 3.6 ESE 39 50 21 27 1018.2 1018.2 0.0
19/01:30pm 16.5 8.4 10.0 65 3.4 ESE 43 54 23 29 1018.4 1018.4 0.0
19/01:00pm 17.0 8.9 10.0 63 3.7 ESE 43 54 23 29 1018.6 1018.6 0.0
19/12:30pm 16.5 7.8 9.8 64 3.5 ESE 46 61 25 33 1018.6 1018.6 0.0
19/12:00pm 17.4 9.1 10.0 62 3.9 ESE 44 52 24 28 1018.7 1018.7 0.0
19/11:30am 17.2 8.6 10.2 63 3.7 ESE 46 57 25 31 1019.0 1019.0 0.0
19/11:00am 17.0 8.4 10.2 64 3.6 ESE 46 57 25 31 1019.0 1019.0 0.0
19/10:30am 16.4 7.9 10.5 68 3.1 ESE 46 56 25 30 1019.4 1019.4 0.0
19/10:00am 15.9 7.3 10.4 70 2.9 ESE 46 57 25 31 1019.6 1019.6 0.0
19/09:30am 16.5 8.1 10.9 69 3.0 ESE 46 57 25 31 1019.9 1019.9 0.0
19/09:00am 15.8 6.4 10.3 70 2.9 ESE 50 61 27 33 1019.7 1019.7 0.8
19/08:30am 15.8 6.6 10.9 72 2.6 ESE 50 61 27 33 1019.9 1019.9 0.8
19/08:00am 15.5 6.2 10.6 72 2.6 ESE 50 59 27 32 1020.0 1020.0 0.8
19/07:30am 15.8 6.2 10.7 71 2.7 E 52 61 28 33 1020.0 1020.0 0.8
19/07:00am 14.8 5.0 10.2 74 2.4 E 52 59 28 32 1020.1 1020.1 0.8
19/06:30am 14.7 5.9 10.9 78 2.0 ESE 48 57 26 31 1020.0 1020.0 0.8
19/06:00am 14.0 4.9 9.9 76 2.1 ESE 48 57 26 31 1019.7 1019.7 0.8
19/05:30am 14.1 5.9 10.5 79 1.9 ESE 44 56 24 30 1019.4 1019.4 0.8
19/05:00am 14.0 4.1 11.0 82 1.6 ESE 54 63 29 34 1019.4 1019.4 0.8
19/04:30am 14.5 4.4 10.5 77 2.1 ESE 54 69 29 37 1019.5 1019.5 0.8
19/04:00am 14.7 4.4 10.9 78 2.0 ESE 56 63 30 34 1019.3 1019.3 0.8
19/03:30am 14.8 5.5 10.4 75 2.3 ESE 50 65 27 35 1019.4 1019.4 0.8
19/03:00am 14.7 5.6 9.7 72 2.6 ESE 48 61 26 33 1019.6 1019.6 0.8
19/02:30am 14.5 5.3 9.6 72 2.5 ESE 48 61 26 33 1019.5 1019.5 0.8
19/02:00am 14.4 3.9 10.2 76 2.2 ESE 56 65 30 35 1019.6 1019.6 0.8
19/01:30am 14.5 4.4 10.5 77 2.1 ESE 54 65 29 35 1019.7 1019.7 0.8
19/01:00am 14.8 5.4 10.0 73 2.5 ESE 50 61 27 33 1019.9 1019.9 0.8
19/12:30am 14.8 5.0 10.0 73 2.5 ESE 52 63 28 34 1020.0 1020.0 0.8
19/12:00am 15.1 5.5 10.7 75 2.3 ESE 52 63 28 34 1020.1 1020.1 0.8
 
Date/Time
WST
Temp
°C
App
Temp
°C
Dew
Point
Rel
Hum
%
Delta-T
°C
Wind Press
QNH
hPa
Press
MSL
hPa
Rain
since 9 am
mm
Dir
 
Spd
km/h
Gust
km/h
Spd
kts
Gust
kts
18/11:30pm 14.9 5.2 10.3 74 2.4 ESE 52 61 28 33 1020.1 1020.1 0.8
18/11:00pm 14.9 5.4 9.9 72 2.6 ESE 50 63 27 34 1020.2 1020.2 0.8
18/10:30pm 15.0 6.4 11.8 81 1.7 ESE 48 57 26 31 1020.0 1020.0 0.8
18/10:01pm 13.7 4.0 10.6 81 1.6 ESE 52 70 28 38 1020.3 1020.3 0.6
18/10:00pm 13.7 3.6 10.4 80 1.7 ESE 54 70 29 38 1020.3 1020.3 0.6
18/09:30pm 14.5 5.7 11.1 80 1.8 ESE 48 57 26 31 1020.1 1020.1 0.6
18/09:00pm 14.5 5.2 10.5 77 2.1 ESE 50 61 27 33 1020.2 1020.2 0.2
18/08:34pm 14.7 5.7 11.7 82 1.6 SE 50 69 27 37 1020.0 1020.0 0.2
18/08:30pm 14.5 5.7 10.9 79 1.9 SE 48 63 26 34 1020.0 1020.0 0.2
18/08:18pm 14.9 6.6 11.3 79 1.9 SE 46 65 25 35 1019.7 1019.7 0.2
18/08:00pm 15.1 6.7 11.2 77 2.1 SE 46 59 25 32 1019.8 1019.8 0.2
18/07:30pm 15.3 6.7 10.3 72 2.6 SE 46 61 25 33 1019.0 1019.0 0.2
18/07:00pm 15.4 6.5 10.7 73 2.5 SE 48 61 26 33 1018.7 1018.7 0.2
18/06:30pm 16.0 8.0 10.5 70 2.9 SE 43 57 23 31 1018.5 1018.5 0.2
18/06:00pm 15.6 6.7 10.5 71 2.7 SE 48 65 26 35 1018.0 1018.0 0.2
18/05:41pm 16.0 7.6 10.9 72 2.7 SE 46 65 25 35 1017.9 1017.9 0.2
18/05:30pm 15.8 6.8 10.3 70 2.9 SE 48 59 26 32 1017.8 1017.8 0.2
18/05:00pm 15.8 6.4 10.1 69 3.0 SE 50 61 27 33 1017.8 1017.8 0.2
18/04:30pm 15.9 6.2 9.1 64 3.5 SE 50 61 27 33 1017.5 1017.5 0.2
18/04:00pm 16.1 7.0 9.8 66 3.3 SE 48 63 26 34 1017.2 1017.2 0.2
18/03:30pm 15.9 6.5 10.0 68 3.1 SE 50 65 27 35 1016.9 1016.9 0.2
18/03:11pm 15.7 7.0 11.2 74 2.4 SE 48 67 26 36 1016.9 1016.9 0.2
18/03:00pm 15.1 5.5 10.7 75 2.3 SE 52 65 28 35 1016.8 1016.8 0.2
18/02:47pm 15.0 6.6 11.2 78 2.0 SE 46 65 25 35 1016.8 1016.8 0.2
18/02:30pm 14.7 5.7 11.7 82 1.6 ESE 50 61 27 33 1017.0 1017.0 0.2
18/02:00pm 14.9 5.7 12.1 83 1.5 ESE 52 63 28 34 1016.9 1016.9 0.0
18/01:30pm 15.9 6.8 9.8 67 3.2 SE 48 59 26 32 1016.9 1016.9 0.0
18/01:00pm 15.5 6.8 10.1 70 2.8 SE 46 59 25 32 1016.9 1016.9 0.0
18/12:30pm 15.6 6.6 10.1 70 2.9 ESE 48 61 26 33 1016.8 1016.8 0.0
18/12:07pm 16.0 7.8 10.5 70 2.9 SE 44 63 24 34 1016.8 1016.8 0.0
18/12:00pm 16.0 7.5 10.5 70 2.9 SE 46 61 25 33 1016.8 1016.8 0.0
18/11:35am 15.9 7.9 10.4 70 2.9 SE 43 61 23 33 1016.9 1016.9 0.0
18/11:30am 15.9 7.2 9.8 67 3.2 SE 46 61 25 33 1016.9 1016.9 0.0
18/11:00am 15.4 7.5 11.5 77 2.1 ESE 44 57 24 31 1017.0 1017.0 0.0
18/10:30am 15.2 6.4 10.9 75 2.3 ESE 48 59 26 32 1016.8 1016.8 0.0
18/10:00am 15.6 6.3 10.5 71 2.7 ESE 50 65 27 35 1016.6 1016.6 0.0
18/09:30am 14.7 5.9 10.9 78 2.0 SE 48 61 26 33 1016.7 1016.7 0.0
18/09:00am 14.7 6.8 12.7 88 1.1 ESE 46 61 25 33 1016.5 1016.5 0.6
18/08:30am 14.8 6.6 11.8 82 1.6 ESE 46 59 25 32 1016.3 1016.3 0.6
18/08:00am 14.6 6.2 12.2 85 1.3 ESE 48 57 26 31 1016.2 1016.2 0.6
18/07:30am 14.1 5.8 12.6 91 0.8 ESE 48 57 26 31 1016.1 1016.1 0.6
18/07:00am 14.0 5.5 12.1 88 1.0 ESE 48 61 26 33 1016.1 1016.1 0.6

Other Formats:

Comma delimited format used in spreadsheet applications
http://www.bom.gov.au/fwo/IDW60801/IDW60801.94601.axf

JavaScript Object Notation format (JSON) in row-major order
http://www.bom.gov.au/fwo/IDW60801/IDW60801.94601.json